createdAt,value
2018-04-15T00:02:17.854Z,84.50
2018-04-15T00:04:46.113Z,83.40
2018-04-15T00:07:14.350Z,83.70
2018-04-15T00:09:43.341Z,83.50
2018-04-15T00:12:11.572Z,83.50
2018-04-15T00:14:39.804Z,82.60
2018-04-15T00:17:08.097Z,82.80
2018-04-15T00:19:36.318Z,83.20
2018-04-15T00:22:04.568Z,83.30
2018-04-15T00:24:32.804Z,83.40
2018-04-15T00:27:01.038Z,83.30
2018-04-15T00:29:29.285Z,83.30
2018-04-15T00:31:57.514Z,83.90
2018-04-15T00:34:25.760Z,83.90
2018-04-15T00:36:53.997Z,83.30
2018-04-15T00:39:22.223Z,83.90
2018-04-15T00:41:51.238Z,83.30
2018-04-15T00:44:19.479Z,83.30
2018-04-15T00:46:47.734Z,83.30
2018-04-15T00:49:15.953Z,83.50
2018-04-15T00:51:44.201Z,83.50
2018-04-15T00:54:17.393Z,84.00
2018-04-15T00:56:45.645Z,84.50
2018-04-15T00:59:14.712Z,84.10
2018-04-15T01:01:42.941Z,84.00
2018-04-15T01:04:11.165Z,84.20
2018-04-15T01:06:39.426Z,84.00
2018-04-15T01:09:08.425Z,84.20
2018-04-15T01:11:37.421Z,84.40
2018-04-15T01:14:05.662Z,84.40
2018-04-15T01:16:33.912Z,84.10
2018-04-15T01:19:02.934Z,84.70
2018-04-15T01:21:31.197Z,84.40
2018-04-15T01:23:59.418Z,84.20
2018-04-15T01:26:27.664Z,84.40
2018-04-15T01:28:55.900Z,83.80
2018-04-15T01:31:24.170Z,84.60
2018-04-15T01:33:52.403Z,84.10
2018-04-15T01:36:20.637Z,84.20
2018-04-15T01:38:49.652Z,84.50
2018-04-15T01:41:18.646Z,84.10
2018-04-15T01:43:47.653Z,83.60
2018-04-15T01:46:16.664Z,83.90
2018-04-15T01:48:44.885Z,83.90
2018-04-15T01:51:13.121Z,83.80
2018-04-15T01:53:41.342Z,83.60
2018-04-15T01:56:09.564Z,83.90
2018-04-15T01:58:37.796Z,83.90
2018-04-15T02:01:06.817Z,83.90
2018-04-15T02:03:35.820Z,83.80
2018-04-15T02:06:04.809Z,84.00
2018-04-15T02:08:33.060Z,84.00
2018-04-15T02:11:01.303Z,84.00
2018-04-15T02:13:30.322Z,83.40
2018-04-15T02:15:58.567Z,83.40
2018-04-15T02:18:26.794Z,83.20
2018-04-15T02:20:55.046Z,83.50
2018-04-15T02:23:23.292Z,83.70
2018-04-15T02:25:51.509Z,83.80
2018-04-15T02:28:19.746Z,83.50
2018-04-15T02:30:48.022Z,83.50
2018-04-15T02:33:17.038Z,83.20
2018-04-15T02:35:45.258Z,83.20
2018-04-15T02:38:13.508Z,83.00
2018-04-15T02:40:42.533Z,83.80
2018-04-15T02:43:10.781Z,83.70
2018-04-15T02:45:39.010Z,83.50
2018-04-15T02:48:07.232Z,83.60
2018-04-15T02:50:35.474Z,84.40
2018-04-15T02:53:04.467Z,83.00
2018-04-15T02:55:33.473Z,83.20
2018-04-15T02:58:02.492Z,82.90
2018-04-15T03:00:31.533Z,83.00
2018-04-15T03:02:59.758Z,83.00
2018-04-15T03:05:27.993Z,82.60
2018-04-15T03:07:56.217Z,82.50
2018-04-15T03:10:24.490Z,82.20
2018-04-15T03:12:52.741Z,82.10
2018-04-15T03:15:21.010Z,81.90
2018-04-15T03:17:50.105Z,81.80
2018-04-15T03:20:18.351Z,81.80
2018-04-15T03:22:46.564Z,81.60
2018-04-15T03:25:14.785Z,81.80
2018-04-15T03:27:43.774Z,81.70
2018-04-15T03:30:12.006Z,81.60
2018-04-15T03:32:40.243Z,81.80
2018-04-15T03:35:08.481Z,81.10
2018-04-15T03:37:36.733Z,81.20
2018-04-15T03:40:05.725Z,81.50
2018-04-15T03:42:33.965Z,81.40
2018-04-15T03:45:02.194Z,81.00
2018-04-15T03:47:30.429Z,80.50
2018-04-15T03:49:58.653Z,80.80
2018-04-15T03:52:26.906Z,80.30
2018-04-15T03:54:55.140Z,80.50
2018-04-15T03:57:23.369Z,80.60
2018-04-15T03:59:52.362Z,81.20
2018-04-15T04:02:20.606Z,81.10
2018-04-15T04:04:48.865Z,80.80
2018-04-15T04:07:17.084Z,80.70
2018-04-15T04:09:45.327Z,80.80
2018-04-15T04:12:14.325Z,80.50
2018-04-15T04:14:43.426Z,80.60
2018-04-15T04:17:11.642Z,80.60
2018-04-15T04:19:51.793Z,80.50
2018-04-15T04:22:32.817Z,80.20
2018-04-15T04:25:13.023Z,80.00
2018-04-15T04:27:41.254Z,80.30
2018-04-15T04:30:09.508Z,80.20
2018-04-15T04:32:37.741Z,80.20
2018-04-15T04:35:05.981Z,80.20
2018-04-15T04:37:34.218Z,80.10
2018-04-15T04:40:02.447Z,80.10
2018-04-15T04:42:31.441Z,79.50
2018-04-15T04:44:59.718Z,79.50
2018-04-15T04:47:27.969Z,79.50
2018-04-15T04:49:56.198Z,79.50
2018-04-15T04:52:24.429Z,79.40
2018-04-15T04:54:52.673Z,78.90
2018-04-15T04:57:20.905Z,78.90
2018-04-15T04:59:49.905Z,79.00
2018-04-15T05:02:18.224Z,78.90
2018-04-15T05:04:46.449Z,79.20
2018-04-15T05:07:14.687Z,79.20
2018-04-15T05:09:43.702Z,79.00
2018-04-15T05:12:11.958Z,79.00
2018-04-15T05:14:40.165Z,79.00
2018-04-15T05:17:09.180Z,78.90
2018-04-15T05:19:37.405Z,79.80
2018-04-15T05:22:05.660Z,78.80
2018-04-15T05:24:34.636Z,78.90
2018-04-15T05:27:02.932Z,78.90
2018-04-15T05:29:31.145Z,78.80
2018-04-15T05:31:59.385Z,79.40
2018-04-15T05:34:27.605Z,79.40
2018-04-15T05:36:56.605Z,78.80
2018-04-15T05:39:25.614Z,79.80
2018-04-15T05:41:53.855Z,79.00
2018-04-15T05:44:22.110Z,79.20
2018-04-15T05:46:50.361Z,78.60
2018-04-15T05:49:18.589Z,78.50
2018-04-15T05:51:46.860Z,78.40
2018-04-15T05:54:15.105Z,78.30
2018-04-15T05:56:43.335Z,78.30
2018-04-15T05:59:12.336Z,78.60
2018-04-15T06:01:40.561Z,78.50
2018-04-15T06:04:08.813Z,78.20
2018-04-15T06:06:37.860Z,78.80
2018-04-15T06:09:06.105Z,78.80
2018-04-15T06:11:35.121Z,79.00
2018-04-15T06:14:04.105Z,78.80
2018-04-15T06:16:32.341Z,78.80
2018-04-15T06:19:00.581Z,78.70
2018-04-15T06:21:28.801Z,79.10
2018-04-15T06:23:57.025Z,78.20
2018-04-15T06:26:25.281Z,79.00
2018-04-15T06:28:53.524Z,78.60
2018-04-15T06:31:21.845Z,78.60
2018-04-15T06:33:50.852Z,78.50
2018-04-15T06:36:19.848Z,79.10
2018-04-15T06:38:48.857Z,78.40
2018-04-15T06:41:17.870Z,78.20
2018-04-15T06:43:46.888Z,78.20
2018-04-15T06:46:15.158Z,78.20
2018-04-15T06:48:44.656Z,78.30
2018-04-15T06:51:12.885Z,78.30
2018-04-15T06:53:41.133Z,78.20
2018-04-15T06:56:09.378Z,78.00
2018-04-15T06:58:37.600Z,78.40
2018-04-15T07:01:05.825Z,78.10
2018-04-15T07:03:34.180Z,78.20
2018-04-15T07:06:02.388Z,77.10
2018-04-15T07:08:31.397Z,78.30
2018-04-15T07:10:59.637Z,78.20
2018-04-15T07:13:27.943Z,78.10
2018-04-15T07:15:56.193Z,78.40
2018-04-15T07:18:25.196Z,78.10
2018-04-15T07:20:53.501Z,78.10
2018-04-15T07:23:21.758Z,77.90
2018-04-15T07:25:50.908Z,78.30
2018-04-15T07:28:19.162Z,77.60
2018-04-15T07:30:48.201Z,78.90
2018-04-15T07:33:16.446Z,79.20
2018-04-15T07:35:45.447Z,79.30
2018-04-15T07:38:15.423Z,79.70
2018-04-15T07:40:43.659Z,79.60
2018-04-15T07:43:12.657Z,79.00
2018-04-15T07:45:41.245Z,78.90
2018-04-15T07:48:09.445Z,80.40
2018-04-15T07:50:38.469Z,80.60
2018-04-15T07:53:06.713Z,80.50
2018-04-15T07:55:34.924Z,80.50
2018-04-15T07:58:03.149Z,80.10
2018-04-15T08:00:31.409Z,80.90
2018-04-15T08:02:59.634Z,80.90
2018-04-15T08:05:27.881Z,80.70
2018-04-15T08:07:56.876Z,82.10
2018-04-15T08:10:25.121Z,82.10
2018-04-15T08:12:53.454Z,81.60
2018-04-15T08:15:21.697Z,82.50
2018-04-15T08:17:49.990Z,81.30
2018-04-15T08:20:18.200Z,80.90
2018-04-15T08:22:46.423Z,81.40
2018-04-15T08:25:15.477Z,82.90
2018-04-15T08:27:43.702Z,82.90
2018-04-15T08:30:11.946Z,81.60
2018-04-15T08:32:40.169Z,82.00
2018-04-15T08:35:08.412Z,81.70
2018-04-15T08:37:36.641Z,82.30
2018-04-15T08:40:04.865Z,82.30
2018-04-15T08:42:33.089Z,82.70
2018-04-15T08:45:01.342Z,82.10
2018-04-15T08:47:30.344Z,83.10
2018-04-15T08:49:59.346Z,82.20
2018-04-15T08:52:28.332Z,83.40
2018-04-15T08:54:56.557Z,83.40
2018-04-15T08:57:24.792Z,83.20
2018-04-15T08:59:53.021Z,82.90
2018-04-15T09:02:22.046Z,83.30
2018-04-15T09:04:50.852Z,83.30
2018-04-15T09:07:19.823Z,82.90
2018-04-15T09:09:48.070Z,82.80
2018-04-15T09:12:16.290Z,83.30
2018-04-15T09:14:44.518Z,83.00
2018-04-15T09:17:12.798Z,83.30
2018-04-15T09:19:41.768Z,83.40
2018-04-15T09:22:10.044Z,83.40
2018-04-15T09:24:38.269Z,83.80
2018-04-15T09:27:07.259Z,84.00
2018-04-15T09:29:35.547Z,84.60
2018-04-15T09:32:03.764Z,83.70
2018-04-15T09:34:32.005Z,83.80
2018-04-15T09:37:00.245Z,83.80
2018-04-15T09:39:28.465Z,83.50
2018-04-15T09:41:56.734Z,83.60
2018-04-15T09:44:24.993Z,83.40
2018-04-15T09:46:53.986Z,83.90
2018-04-15T09:49:22.981Z,84.00
2018-04-15T09:51:51.237Z,84.00
2018-04-15T09:54:20.240Z,83.90
2018-04-15T09:56:48.529Z,84.00
2018-04-15T09:59:16.798Z,84.10
2018-04-15T10:01:45.809Z,83.60
2018-04-15T10:04:14.778Z,83.80
2018-04-15T10:06:43.756Z,83.70
2018-04-15T10:09:11.994Z,83.20
2018-04-15T10:11:40.235Z,83.50
2018-04-15T10:14:08.477Z,83.50
2018-04-15T10:16:36.722Z,83.20
2018-04-15T10:19:04.954Z,82.30
2018-04-15T10:21:33.193Z,84.30
2018-04-15T10:24:01.491Z,83.80
2018-04-15T10:26:29.684Z,84.60
2018-04-15T10:28:58.677Z,84.20
2018-04-15T10:31:26.912Z,84.10
2018-04-15T10:33:55.213Z,84.80
2018-04-15T10:36:23.647Z,83.50
2018-04-15T10:38:51.860Z,83.50
2018-04-15T10:41:20.861Z,84.10
2018-04-15T10:43:49.850Z,84.60
2018-04-15T10:46:18.082Z,84.50
2018-04-15T10:48:46.317Z,84.80
2018-04-15T10:51:14.549Z,84.50
2018-04-15T10:53:42.770Z,84.10
2018-04-15T10:56:11.013Z,84.10
2018-04-15T10:58:40.001Z,84.70
2018-04-15T11:01:09.017Z,84.60
2018-04-15T11:03:38.037Z,84.80
2018-04-15T11:06:07.038Z,84.30
2018-04-15T11:08:39.174Z,84.30
2018-04-15T11:11:07.397Z,84.60
2018-04-15T11:13:36.407Z,84.60
2018-04-15T11:16:05.392Z,84.20
2018-04-15T11:18:33.661Z,84.20
2018-04-15T11:21:01.935Z,85.30
2018-04-15T11:23:30.161Z,84.70
2018-04-15T11:25:58.386Z,84.80
2018-04-15T11:28:26.610Z,84.80
2018-04-15T11:30:54.851Z,85.10
2018-04-15T11:33:23.114Z,85.20
2018-04-15T11:35:51.353Z,85.80
2018-04-15T11:38:19.637Z,85.80
2018-04-15T11:40:48.588Z,85.40
2018-04-15T11:43:16.829Z,85.30
2018-04-15T11:45:45.053Z,84.60
2018-04-15T11:48:13.290Z,84.50
2018-04-15T11:50:41.560Z,84.50
2018-04-15T11:53:10.570Z,84.50
2018-04-15T11:55:39.578Z,85.50
2018-04-15T11:58:07.820Z,85.50
2018-04-15T12:00:36.046Z,85.90
2018-04-15T12:03:05.034Z,85.80
2018-04-15T12:05:33.268Z,85.80
2018-04-15T12:08:01.498Z,85.30
2018-04-15T12:10:29.761Z,85.50
2018-04-15T12:12:58.005Z,84.50
2018-04-15T12:15:27.006Z,84.50
2018-04-15T12:17:56.017Z,84.50
2018-04-15T12:20:25.011Z,84.40
2018-04-15T12:22:53.336Z,84.40
2018-04-15T12:25:22.353Z,84.40
2018-04-15T12:27:50.574Z,84.40
2018-04-15T12:30:18.809Z,84.00
2018-04-15T12:32:47.033Z,85.00
2018-04-15T12:35:15.273Z,85.30
2018-04-15T12:37:44.288Z,85.00
2018-04-15T12:40:12.513Z,84.90
2018-04-15T12:42:40.785Z,84.10
2018-04-15T12:45:09.012Z,84.80
2018-04-15T12:47:37.241Z,84.60
2018-04-15T12:50:05.469Z,84.70
2018-04-15T12:52:33.786Z,84.80
2018-04-15T12:55:02.042Z,85.30
2018-04-15T12:57:30.272Z,84.70
2018-04-15T12:59:59.257Z,85.00
2018-04-15T13:02:27.509Z,84.90
2018-04-15T13:04:55.840Z,85.30
2018-04-15T13:07:24.085Z,86.10
2018-04-15T13:09:52.379Z,85.90
2018-04-15T13:12:20.725Z,85.20
2018-04-15T13:14:50.489Z,85.20
2018-04-15T13:17:18.724Z,85.40
2018-04-15T13:19:46.954Z,85.40
2018-04-15T13:22:15.241Z,85.30
2018-04-15T13:24:43.438Z,85.50
2018-04-15T13:27:11.673Z,85.30
2018-04-15T13:29:39.937Z,85.80
2018-04-15T13:32:08.165Z,85.50
2018-04-15T13:34:37.160Z,85.70
2018-04-15T13:37:05.420Z,85.70
2018-04-15T13:39:33.712Z,84.80
2018-04-15T13:42:01.983Z,85.10
2018-04-15T13:44:30.190Z,85.30
2018-04-15T13:46:58.443Z,84.50
2018-04-15T13:49:26.653Z,84.60
2018-04-15T13:51:54.881Z,84.90
2018-04-15T13:54:23.176Z,84.90
2018-04-15T13:56:52.341Z,85.20
2018-04-15T13:59:20.607Z,85.50
2018-04-15T14:01:48.827Z,85.70
2018-04-15T14:04:17.062Z,85.40
2018-04-15T14:06:45.357Z,85.10
2018-04-15T14:09:14.085Z,85.20
2018-04-15T14:11:42.381Z,85.60
2018-04-15T14:14:10.577Z,85.70
2018-04-15T14:16:38.884Z,85.40
2018-04-15T14:19:07.114Z,84.70
2018-04-15T14:21:35.378Z,85.00
2018-04-15T14:24:03.625Z,85.80
2018-04-15T14:26:31.894Z,85.60
2018-04-15T14:29:00.083Z,85.50
2018-04-15T14:31:29.891Z,85.40
2018-04-15T14:33:58.126Z,85.10
2018-04-15T14:36:26.363Z,85.90
2018-04-15T14:38:55.701Z,85.30
2018-04-15T14:41:23.936Z,85.30
2018-04-15T14:43:52.208Z,85.40
2018-04-15T14:46:21.253Z,84.30
2018-04-15T14:48:49.536Z,84.20
2018-04-15T14:51:17.755Z,84.20
2018-04-15T14:53:46.079Z,84.00
2018-04-15T14:56:15.232Z,84.00
2018-04-15T14:58:43.454Z,84.00
2018-04-15T15:01:11.685Z,84.00
2018-04-15T15:03:39.941Z,84.10
2018-04-15T15:06:08.156Z,84.60
2018-04-15T15:08:36.390Z,84.30
2018-04-15T15:11:04.613Z,84.40
2018-04-15T15:13:32.865Z,84.30
2018-04-15T15:16:01.073Z,84.70
2018-04-15T15:18:29.489Z,84.30
2018-04-15T15:20:57.711Z,84.90
2018-04-15T15:23:26.707Z,84.10
2018-04-15T15:25:55.864Z,83.80
2018-04-15T15:28:24.119Z,83.70
2018-04-15T15:30:52.338Z,84.40
2018-04-15T15:33:20.650Z,83.60
2018-04-15T15:35:48.918Z,82.70
2018-04-15T15:38:17.122Z,83.10
2018-04-15T15:40:45.366Z,82.80
2018-04-15T15:43:14.359Z,82.80
2018-04-15T15:45:43.888Z,82.90
2018-04-15T15:48:13.034Z,82.90
2018-04-15T15:50:41.277Z,82.90
2018-04-15T15:56:22.459Z,82.60
2018-04-15T15:59:12.205Z,81.40
2018-04-15T16:01:44.753Z,82.30
2018-04-15T16:04:13.685Z,82.20
2018-04-15T16:06:45.366Z,82.10
2018-04-15T16:09:14.519Z,83.00
2018-04-15T16:14:19.517Z,82.80
2018-04-15T16:16:48.496Z,82.30
2018-04-15T16:19:16.750Z,82.70
2018-04-15T16:21:46.176Z,82.00
2018-04-15T16:24:14.429Z,81.90
2018-04-15T16:26:44.364Z,81.70
2018-04-15T16:29:12.577Z,82.00
2018-04-15T16:31:41.798Z,82.20
2018-04-15T16:34:11.928Z,82.30
2018-04-15T16:36:43.584Z,81.70
2018-04-15T16:39:16.074Z,81.00
2018-04-15T16:41:44.685Z,80.40
2018-04-15T16:44:12.962Z,81.10
2018-04-15T16:46:42.721Z,81.80
2018-04-15T16:49:11.941Z,81.80
2018-04-15T16:51:40.158Z,81.60
2018-04-15T16:54:11.558Z,82.00
2018-04-15T16:56:39.792Z,81.90
2018-04-15T16:59:12.141Z,82.30
2018-04-15T17:01:42.393Z,82.50
2018-04-15T17:04:10.600Z,82.40
2018-04-15T17:06:38.821Z,81.90
2018-04-15T17:09:08.307Z,82.20
2018-04-15T17:11:36.561Z,82.20
2018-04-15T17:14:04.784Z,82.30
2018-04-15T17:16:34.622Z,83.10
2018-04-15T17:19:02.841Z,82.40
2018-04-15T17:21:31.092Z,82.40
2018-04-15T17:23:59.313Z,82.20
2018-04-15T17:26:27.572Z,82.30
2018-04-15T17:28:55.836Z,82.20
2018-04-15T17:31:24.148Z,82.50
2018-04-15T17:33:52.409Z,82.20
2018-04-15T17:36:20.633Z,82.20
2018-04-15T17:38:48.885Z,82.00
2018-04-15T17:41:17.113Z,82.20
2018-04-15T17:43:46.124Z,82.30
2018-04-15T17:46:15.152Z,81.60
2018-04-15T17:48:43.393Z,81.60
2018-04-15T17:51:11.633Z,81.70
2018-04-15T17:53:39.853Z,81.30
2018-04-15T17:56:09.412Z,81.20
2018-04-15T17:58:39.290Z,81.30
2018-04-15T18:01:07.486Z,81.20
2018-04-15T18:03:36.381Z,80.80
2018-04-15T18:06:05.893Z,80.30
2018-04-15T18:08:34.133Z,80.80
2018-04-15T18:11:02.351Z,81.20
2018-04-15T18:13:30.623Z,81.10
2018-04-15T18:15:58.820Z,81.10
2018-04-15T18:18:27.105Z,81.00
2018-04-15T18:20:55.369Z,82.20
2018-04-15T18:23:26.584Z,82.70
2018-04-15T18:25:54.974Z,82.10
2018-04-15T18:28:23.238Z,81.90
2018-04-15T18:30:51.592Z,81.70
2018-04-15T18:33:19.834Z,82.20
2018-04-15T18:35:48.122Z,82.50
2018-04-15T18:38:16.370Z,82.30
2018-04-15T18:40:44.634Z,81.80
2018-04-15T18:43:12.889Z,81.40
2018-04-15T18:45:41.115Z,80.90
2018-04-15T18:48:09.358Z,81.50
2018-04-15T18:50:37.598Z,80.50
2018-04-15T18:53:06.725Z,79.90
2018-04-15T18:55:38.835Z,80.60
2018-04-15T18:58:07.828Z,81.30
2018-04-15T19:00:36.829Z,81.30
2018-04-15T19:03:05.084Z,81.20
2018-04-15T19:05:34.103Z,81.20
2018-04-15T19:08:03.127Z,81.00
2018-04-15T19:10:32.129Z,81.00
2018-04-15T19:13:01.126Z,81.30
2018-04-15T19:15:30.118Z,81.00
2018-04-15T19:18:01.076Z,81.00
2018-04-15T19:20:29.375Z,81.10
2018-04-15T19:22:58.487Z,81.10
2018-04-15T19:25:26.686Z,81.10
2018-04-15T19:27:55.921Z,81.10
2018-04-15T19:30:24.170Z,81.10
2018-04-15T19:32:53.164Z,82.30
2018-04-15T19:35:22.182Z,82.10
2018-04-15T19:37:50.442Z,82.10
2018-04-15T19:40:19.928Z,82.20
2018-04-15T19:42:54.117Z,82.70
2018-04-15T19:45:22.997Z,83.90
2018-04-15T19:47:51.256Z,83.00
2018-04-15T19:50:19.533Z,82.40
2018-04-15T19:52:48.864Z,82.30
2018-04-15T19:55:17.122Z,82.30
2018-04-15T19:57:45.352Z,82.20
2018-04-15T20:00:13.621Z,82.30
2018-04-15T20:02:41.910Z,82.20
2018-04-15T20:05:10.172Z,82.20
2018-04-15T20:07:39.189Z,82.30
2018-04-15T20:10:08.939Z,82.60
2018-04-15T20:12:37.153Z,82.50
2018-04-15T20:15:05.378Z,82.20
2018-04-15T20:17:33.604Z,82.70
2018-04-15T20:20:01.872Z,82.00
2018-04-15T20:22:30.086Z,81.90
2018-04-15T20:24:58.413Z,82.10
2018-04-15T20:27:26.641Z,82.10
2018-04-15T20:29:54.897Z,81.40
2018-04-15T20:32:23.136Z,81.70
2018-04-15T20:34:51.374Z,82.00
2018-04-15T20:37:19.603Z,82.10
2018-04-15T20:39:47.830Z,82.20
2018-04-15T20:42:16.871Z,82.30
2018-04-15T20:44:45.096Z,82.30
2018-04-15T20:47:13.323Z,82.30
2018-04-15T20:49:42.861Z,82.10
2018-04-15T20:52:11.081Z,82.10
2018-04-15T20:54:39.301Z,81.90
2018-04-15T20:57:09.231Z,80.90
2018-04-15T20:59:38.225Z,80.80
2018-04-15T21:02:06.472Z,80.80
2018-04-15T21:04:34.704Z,81.10
2018-04-15T21:07:02.965Z,81.50
2018-04-15T21:09:31.226Z,82.30
2018-04-15T21:11:59.502Z,81.80
2018-04-15T21:14:27.694Z,82.00
2018-04-15T21:16:56.565Z,81.90
2018-04-15T21:19:25.737Z,81.70
2018-04-15T21:21:54.837Z,82.10
2018-04-15T21:24:23.126Z,82.30
2018-04-15T21:26:51.379Z,82.30
2018-04-15T21:29:20.385Z,82.30
2018-04-15T21:31:48.646Z,82.30
2018-04-15T21:34:16.918Z,82.50
2018-04-15T21:36:45.133Z,82.60
2018-04-15T21:39:14.130Z,82.80
2018-04-15T21:41:42.357Z,82.90
2018-04-15T21:44:10.584Z,83.00
2018-04-15T21:46:40.330Z,83.20
2018-04-15T21:49:08.574Z,83.00
2018-04-15T21:51:36.823Z,82.90
2018-04-15T21:54:05.013Z,82.70
2018-04-15T21:56:34.005Z,82.30
2018-04-15T21:59:02.993Z,82.60
2018-04-15T22:01:31.229Z,82.60
2018-04-15T22:03:59.455Z,82.30
2018-04-15T22:06:27.689Z,82.10
2018-04-15T22:08:55.949Z,81.70
2018-04-15T22:11:35.953Z,81.50
2018-04-15T22:14:04.182Z,81.40
2018-04-15T22:16:32.417Z,81.60
2018-04-15T22:19:00.659Z,81.60
2018-04-15T22:21:28.918Z,81.30
2018-04-15T22:23:57.143Z,81.40
2018-04-15T22:26:25.378Z,80.90
2018-04-15T22:28:53.637Z,81.10
2018-04-15T22:31:21.858Z,80.90
2018-04-15T22:33:50.110Z,81.00
2018-04-15T22:36:18.349Z,81.00
2018-04-15T22:38:46.577Z,81.50
2018-04-15T22:41:14.789Z,81.80
2018-04-15T22:43:43.813Z,81.80
2018-04-15T22:46:12.058Z,81.70
2018-04-15T22:48:45.104Z,81.60
2018-04-15T22:51:13.329Z,81.80
2018-04-15T22:53:41.553Z,82.10
2018-04-15T22:56:09.800Z,82.50
2018-04-15T22:58:43.743Z,82.60
2018-04-15T23:01:11.985Z,82.10
2018-04-15T23:03:40.229Z,82.00
2018-04-15T23:06:08.440Z,81.90
2018-04-15T23:08:37.441Z,81.90
2018-04-15T23:11:06.425Z,82.20
2018-04-15T23:13:34.657Z,82.10
2018-04-15T23:16:02.869Z,82.50
2018-04-15T23:18:31.111Z,81.90
2018-04-15T23:21:00.129Z,81.80
2018-04-15T23:23:29.120Z,82.10
2018-04-15T23:25:58.113Z,82.00
2018-04-15T23:28:26.333Z,82.00
2018-04-15T23:30:54.582Z,81.90
2018-04-15T23:33:22.817Z,81.60
2018-04-15T23:35:51.044Z,81.20
2018-04-15T23:38:19.282Z,81.20
2018-04-15T23:40:47.542Z,81.30
2018-04-15T23:43:15.762Z,81.10
2018-04-15T23:45:44.003Z,81.10
2018-04-15T23:48:12.225Z,81.40
2018-04-15T23:50:40.454Z,81.10
2018-04-15T23:53:08.681Z,81.70
2018-04-15T23:55:36.909Z,81.60
2018-04-15T23:58:05.164Z,82.40
